createdAt,value
2023-02-15T00:00:26.931Z,93.90
2023-02-15T00:01:09.508Z,93.80
2023-02-15T00:01:42.715Z,94.70
2023-02-15T00:02:14.659Z,94.70
2023-02-15T00:02:46.491Z,94.50
2023-02-15T00:03:18.398Z,93.90
2023-02-15T00:03:51.052Z,93.90
2023-02-15T00:04:25.050Z,93.90
2023-02-15T00:04:57.063Z,94.50
2023-02-15T00:05:30.957Z,94.30
2023-02-15T00:06:03.680Z,94.10
2023-02-15T00:06:35.752Z,93.80
2023-02-15T00:07:07.581Z,94.00
2023-02-15T00:07:39.356Z,94.20
2023-02-15T00:08:11.158Z,93.80
2023-02-15T00:08:43.202Z,94.50
2023-02-15T00:09:15.511Z,94.00
2023-02-15T00:09:48.145Z,93.80
2023-02-15T00:10:19.985Z,94.60
2023-02-15T00:10:51.744Z,94.10
2023-02-15T00:11:41.872Z,94.00
2023-02-15T00:12:14.646Z,93.70
2023-02-15T00:12:46.472Z,94.00
2023-02-15T00:13:18.286Z,94.40
2023-02-15T00:13:50.084Z,94.50
2023-02-15T00:14:24.265Z,94.70
2023-02-15T00:14:56.399Z,93.80
2023-02-15T00:15:28.133Z,94.20
2023-02-15T00:16:26.070Z,94.30
2023-02-15T00:17:00.688Z,93.70
2023-02-15T00:17:32.527Z,93.70
2023-02-15T00:18:04.531Z,94.40
2023-02-15T00:18:36.430Z,93.70
2023-02-15T00:19:09.190Z,94.50
2023-02-15T00:19:41.076Z,93.80
2023-02-15T00:20:12.855Z,94.60
2023-02-15T00:20:44.632Z,93.80
2023-02-15T00:21:16.397Z,93.80
2023-02-15T00:21:49.732Z,93.80
2023-02-15T00:22:21.625Z,93.70
2023-02-15T00:22:53.479Z,94.10
2023-02-15T00:23:27.368Z,93.80
2023-02-15T00:24:01.488Z,94.30
2023-02-15T00:24:33.915Z,93.70
2023-02-15T00:25:06.109Z,94.20
2023-02-15T00:25:37.918Z,93.70
2023-02-15T00:26:12.148Z,94.60
2023-02-15T00:26:47.832Z,93.70
2023-02-15T00:27:19.648Z,93.80
2023-02-15T00:27:51.491Z,93.80
2023-02-15T00:28:23.266Z,94.10
2023-02-15T00:28:55.698Z,93.80
2023-02-15T00:29:27.706Z,93.70
2023-02-15T00:29:59.582Z,94.50
2023-02-15T00:30:32.607Z,94.10
2023-02-15T00:31:14.955Z,94.70
2023-02-15T00:31:47.502Z,93.80
2023-02-15T00:32:19.354Z,93.70
2023-02-15T00:32:52.282Z,94.00
2023-02-15T00:33:26.949Z,94.40
2023-02-15T00:34:03.356Z,94.30
2023-02-15T00:34:35.293Z,94.10
2023-02-15T00:35:07.868Z,93.70
2023-02-15T00:35:39.735Z,93.70
2023-02-15T00:36:12.215Z,93.60
2023-02-15T00:36:45.157Z,93.70
2023-02-15T00:37:16.966Z,94.40
2023-02-15T00:37:53.372Z,94.40
2023-02-15T00:38:25.197Z,93.70
2023-02-15T00:38:57.506Z,94.40
2023-02-15T00:39:29.913Z,94.40
2023-02-15T00:40:02.220Z,94.10
2023-02-15T00:40:35.680Z,93.70
2023-02-15T00:41:09.351Z,93.70
2023-02-15T00:41:41.261Z,93.40
2023-02-15T00:42:13.096Z,93.70
2023-02-15T00:42:44.872Z,93.70
2023-02-15T00:43:16.704Z,93.70
2023-02-15T00:43:48.510Z,93.60
2023-02-15T00:44:20.247Z,94.30
2023-02-15T00:44:52.067Z,93.60
2023-02-15T00:45:23.791Z,94.00
2023-02-15T00:45:58.123Z,93.60
2023-02-15T00:46:30.475Z,94.50
2023-02-15T00:47:02.310Z,93.60
2023-02-15T00:47:34.224Z,93.60
2023-02-15T00:48:06.016Z,94.30
2023-02-15T00:48:37.832Z,93.70
2023-02-15T00:49:10.097Z,93.60
2023-02-15T00:49:42.994Z,93.60
2023-02-15T00:50:14.833Z,94.40
2023-02-15T00:50:47.678Z,93.80
2023-02-15T00:51:19.821Z,93.90
2023-02-15T00:51:51.644Z,93.60
2023-02-15T00:52:23.470Z,94.10
2023-02-15T00:52:55.293Z,94.30
2023-02-15T00:53:28.453Z,94.10
2023-02-15T00:54:00.357Z,93.50
2023-02-15T00:54:32.208Z,94.50
2023-02-15T00:55:04.211Z,94.40
2023-02-15T00:55:36.091Z,93.60
2023-02-15T00:56:07.920Z,94.40
2023-02-15T00:56:39.658Z,94.40
2023-02-15T00:57:11.651Z,94.40
2023-02-15T00:57:43.432Z,94.30
2023-02-15T00:58:16.280Z,94.10
2023-02-15T00:58:48.135Z,93.90
2023-02-15T00:59:19.972Z,93.60
2023-02-15T00:59:53.293Z,94.30
2023-02-15T01:00:25.459Z,93.60
2023-02-15T01:01:06.004Z,93.60
2023-02-15T01:01:37.908Z,93.10
2023-02-15T01:02:09.872Z,94.30
2023-02-15T01:02:41.672Z,93.70
2023-02-15T01:03:16.488Z,94.20
2023-02-15T01:03:48.916Z,94.00
2023-02-15T01:04:20.698Z,93.70
2023-02-15T01:04:52.511Z,93.80
2023-02-15T01:05:24.780Z,93.60
2023-02-15T01:05:56.630Z,93.70
2023-02-15T01:06:28.496Z,94.30
2023-02-15T01:07:00.341Z,94.10
2023-02-15T01:07:32.314Z,93.70
2023-02-15T01:08:04.872Z,94.30
2023-02-15T01:08:36.963Z,93.70
2023-02-15T01:09:08.824Z,94.10
2023-02-15T01:09:42.340Z,94.50
2023-02-15T01:10:14.522Z,94.20
2023-02-15T01:10:48.062Z,94.40
2023-02-15T01:11:23.125Z,94.70
2023-02-15T01:11:56.051Z,94.20
2023-02-15T01:12:27.822Z,93.80
2023-02-15T01:12:59.627Z,93.80
2023-02-15T01:13:32.505Z,93.80
2023-02-15T01:14:06.355Z,93.80
2023-02-15T01:14:38.143Z,93.80
2023-02-15T01:15:10.706Z,94.70
2023-02-15T01:15:44.201Z,94.70
2023-02-15T01:16:16.270Z,94.70
2023-02-15T01:16:48.224Z,93.80
2023-02-15T01:17:19.956Z,94.20
2023-02-15T01:17:53.705Z,93.80
2023-02-15T01:18:27.668Z,93.80
2023-02-15T01:18:59.551Z,93.80
2023-02-15T01:19:31.328Z,93.80
2023-02-15T01:20:06.497Z,93.80
2023-02-15T01:20:42.017Z,93.80
2023-02-15T01:21:16.796Z,93.70
2023-02-15T01:21:49.393Z,94.40
2023-02-15T01:22:21.510Z,94.50
2023-02-15T01:22:53.945Z,93.70
2023-02-15T01:23:26.678Z,93.70
2023-02-15T01:24:00.030Z,93.70
2023-02-15T01:24:32.046Z,94.00
2023-02-15T01:25:04.167Z,93.70
2023-02-15T01:25:36.766Z,93.70
2023-02-15T01:26:09.574Z,94.50
2023-02-15T01:26:41.407Z,94.20
2023-02-15T01:27:13.155Z,94.00
2023-02-15T01:27:45.296Z,93.70
2023-02-15T01:28:18.364Z,93.70
2023-02-15T01:28:50.168Z,93.80
2023-02-15T01:29:22.363Z,93.70
2023-02-15T01:29:54.188Z,94.40
2023-02-15T01:30:27.763Z,93.70
2023-02-15T01:31:00.309Z,93.70
2023-02-15T01:31:32.436Z,93.70
2023-02-15T01:32:04.544Z,93.80
2023-02-15T01:32:36.468Z,93.80
2023-02-15T01:33:08.822Z,94.40
2023-02-15T01:33:41.052Z,94.60
2023-02-15T01:34:14.901Z,93.80
2023-02-15T01:34:46.731Z,94.70
2023-02-15T01:35:18.854Z,94.70
2023-02-15T01:35:58.020Z,93.80
2023-02-15T01:36:30.335Z,94.40
2023-02-15T01:37:02.426Z,94.40
2023-02-15T01:37:35.195Z,94.50
2023-02-15T01:38:06.930Z,93.80
2023-02-15T01:38:38.744Z,93.80
2023-02-15T01:39:11.442Z,93.80
2023-02-15T01:39:43.256Z,94.70
2023-02-15T01:40:17.612Z,94.40
2023-02-15T01:40:53.519Z,94.20
2023-02-15T01:41:25.493Z,94.70
2023-02-15T01:41:58.887Z,94.80
2023-02-15T01:42:31.055Z,94.80
2023-02-15T01:43:02.887Z,94.30
2023-02-15T01:43:46.386Z,94.20
2023-02-15T01:44:55.176Z,93.80
2023-02-15T01:45:30.354Z,93.80
2023-02-15T01:46:02.363Z,94.60
2023-02-15T01:46:54.010Z,93.80
2023-02-15T01:47:43.700Z,93.80
2023-02-15T01:48:23.325Z,93.80
2023-02-15T01:49:12.239Z,93.90
2023-02-15T01:49:47.775Z,93.80
2023-02-15T01:50:37.817Z,94.80
2023-02-15T01:51:10.131Z,93.80
2023-02-15T01:51:46.445Z,94.20
2023-02-15T01:52:19.663Z,94.50
2023-02-15T01:53:03.196Z,94.10
2023-02-15T01:53:48.148Z,93.80
2023-02-15T01:54:33.152Z,93.80
2023-02-15T01:55:07.326Z,93.80
2023-02-15T01:55:49.219Z,93.90
2023-02-15T01:56:33.289Z,93.90
2023-02-15T01:57:11.745Z,93.90
2023-02-15T01:57:46.418Z,94.60
2023-02-15T01:58:20.905Z,94.30
2023-02-15T01:58:56.570Z,93.90
2023-02-15T01:59:28.413Z,93.90
2023-02-15T02:00:07.506Z,94.40
2023-02-15T02:00:45.914Z,94.90
2023-02-15T02:01:19.762Z,94.00
2023-02-15T02:01:58.434Z,94.30
2023-02-15T02:02:31.084Z,94.00
2023-02-15T02:03:04.133Z,94.00
2023-02-15T02:03:54.625Z,94.00
2023-02-15T02:04:39.712Z,94.40
2023-02-15T02:05:11.655Z,94.00
2023-02-15T02:05:43.761Z,94.80
2023-02-15T02:06:19.101Z,94.00
2023-02-15T02:06:53.693Z,95.00
2023-02-15T02:07:28.855Z,94.10
2023-02-15T02:08:02.971Z,94.10
2023-02-15T02:08:36.880Z,94.10
2023-02-15T02:09:09.073Z,94.60
2023-02-15T02:09:41.212Z,94.90
2023-02-15T02:10:17.205Z,94.80
2023-02-15T02:10:48.978Z,95.00
2023-02-15T02:11:21.241Z,94.10
2023-02-15T02:11:55.375Z,94.10
2023-02-15T02:12:27.585Z,94.60
2023-02-15T02:13:04.931Z,94.20
2023-02-15T02:13:36.776Z,94.10
2023-02-15T02:14:09.468Z,94.10
2023-02-15T02:14:42.930Z,94.10
2023-02-15T02:15:16.037Z,94.10
2023-02-15T02:16:05.405Z,93.30
2023-02-15T02:16:58.139Z,94.10
2023-02-15T02:17:54.110Z,94.10
2023-02-15T02:18:47.479Z,94.00
2023-02-15T02:19:48.387Z,94.00
2023-02-15T02:20:57.124Z,94.00
2023-02-15T02:22:16.228Z,94.00
2023-02-15T02:23:29.506Z,94.00
2023-02-15T02:24:34.767Z,94.00
2023-02-15T02:25:28.052Z,94.00
2023-02-15T02:26:05.896Z,94.00
2023-02-15T02:27:04.923Z,94.00
2023-02-15T02:27:51.684Z,94.00
2023-02-15T02:28:44.823Z,94.00
2023-02-15T02:29:31.040Z,94.00
2023-02-15T02:30:24.105Z,94.00
2023-02-15T02:31:07.332Z,94.10
2023-02-15T02:32:11.077Z,95.00
2023-02-15T02:33:10.047Z,94.20
2023-02-15T02:34:12.004Z,94.20
2023-02-15T02:35:09.421Z,94.20
2023-02-15T02:36:09.386Z,94.20
2023-02-15T02:36:54.356Z,95.10
2023-02-15T02:37:46.507Z,94.20
2023-02-15T02:38:52.118Z,94.20
2023-02-15T02:39:48.952Z,94.20
2023-02-15T02:40:40.796Z,94.20
2023-02-15T02:41:45.839Z,94.30
2023-02-15T02:42:51.627Z,94.30
2023-02-15T02:43:39.261Z,94.20
2023-02-15T02:44:30.196Z,94.00
2023-02-15T02:45:15.891Z,95.30
2023-02-15T02:46:03.999Z,94.20
2023-02-15T02:46:52.244Z,94.20
2023-02-15T02:47:29.380Z,94.20
2023-02-15T02:48:10.406Z,94.30
2023-02-15T02:48:42.559Z,94.10
2023-02-15T02:49:14.644Z,94.40
2023-02-15T02:49:46.820Z,94.40
2023-02-15T02:50:24.405Z,95.30
2023-02-15T02:50:56.239Z,94.30
2023-02-15T02:51:28.036Z,94.40
2023-02-15T02:52:27.220Z,94.30
2023-02-15T02:53:00.236Z,94.30
2023-02-15T02:53:34.819Z,94.60
2023-02-15T02:54:08.376Z,94.30
2023-02-15T02:54:40.220Z,94.30
2023-02-15T02:55:35.935Z,94.40
2023-02-15T02:56:28.234Z,94.40
2023-02-15T02:57:10.079Z,95.30
2023-02-15T02:58:07.663Z,94.40
2023-02-15T02:58:59.639Z,94.40
2023-02-15T02:59:41.517Z,94.40
2023-02-15T03:00:16.671Z,95.10
2023-02-15T03:00:54.116Z,94.40
2023-02-15T03:01:35.403Z,94.40
2023-02-15T03:02:16.023Z,94.40
2023-02-15T03:02:52.679Z,95.00
2023-02-15T03:03:28.613Z,95.30
2023-02-15T03:04:10.668Z,95.20
2023-02-15T03:04:50.295Z,94.50
2023-02-15T03:05:27.235Z,95.00
2023-02-15T03:06:07.054Z,94.50
2023-02-15T03:06:48.150Z,94.50
2023-02-15T03:07:23.933Z,94.50
2023-02-15T03:07:58.222Z,94.60
2023-02-15T03:08:41.112Z,94.50
2023-02-15T03:09:18.059Z,94.80
2023-02-15T03:09:54.198Z,95.00
2023-02-15T03:10:26.957Z,94.50
2023-02-15T03:11:02.142Z,95.10
2023-02-15T03:11:34.778Z,95.30
2023-02-15T03:12:06.812Z,94.50
2023-02-15T03:12:43.486Z,94.50
2023-02-15T03:13:16.159Z,94.60
2023-02-15T03:13:50.627Z,94.60
2023-02-15T03:14:22.612Z,95.30
2023-02-15T03:15:05.084Z,94.50
2023-02-15T03:16:01.642Z,94.50
2023-02-15T03:16:34.419Z,94.50
2023-02-15T03:17:11.696Z,94.50
2023-02-15T03:17:48.983Z,95.40
2023-02-15T03:18:25.829Z,94.50
2023-02-15T03:19:07.033Z,95.40
2023-02-15T03:19:41.131Z,95.30
2023-02-15T03:20:26.373Z,94.50
2023-02-15T03:21:01.610Z,94.50
2023-02-15T03:21:39.807Z,95.00
2023-02-15T03:22:24.489Z,94.50
2023-02-15T03:23:26.581Z,94.50
2023-02-15T03:24:18.485Z,94.50
2023-02-15T03:24:58.952Z,94.50
2023-02-15T03:25:43.002Z,94.50
2023-02-15T03:26:16.668Z,94.60
2023-02-15T03:26:52.801Z,94.60
2023-02-15T03:27:32.115Z,94.00
2023-02-15T03:28:12.330Z,94.50
2023-02-15T03:28:49.845Z,94.50
2023-02-15T03:29:28.597Z,94.50
2023-02-15T03:30:02.994Z,95.50
2023-02-15T03:30:37.389Z,94.50
2023-02-15T03:31:12.687Z,94.80
2023-02-15T03:31:49.796Z,94.50
2023-02-15T03:32:23.521Z,95.40
2023-02-15T03:33:00.541Z,94.60
2023-02-15T03:33:34.932Z,95.40
2023-02-15T03:34:12.555Z,94.60
2023-02-15T03:34:45.786Z,94.00
2023-02-15T03:35:18.232Z,94.60
2023-02-15T03:36:10.824Z,94.60
2023-02-15T03:36:59.039Z,94.60
2023-02-15T03:37:42.505Z,95.50
2023-02-15T03:38:22.033Z,94.60
2023-02-15T03:39:39.057Z,94.60
2023-02-15T03:41:10.210Z,94.60
2023-02-15T03:42:07.043Z,94.60
2023-02-15T03:42:40.880Z,94.60
2023-02-15T03:43:18.407Z,94.60
2023-02-15T03:44:00.023Z,94.60
2023-02-15T03:44:36.609Z,94.60
2023-02-15T03:45:15.566Z,95.00
2023-02-15T03:45:58.191Z,94.60
2023-02-15T03:46:54.464Z,94.60
2023-02-15T03:47:35.379Z,94.60
2023-02-15T03:48:09.239Z,95.40
2023-02-15T03:48:49.190Z,94.70
2023-02-15T03:49:43.437Z,94.60
2023-02-15T03:50:40.616Z,95.30
2023-02-15T03:51:38.738Z,94.70
2023-02-15T03:52:13.968Z,95.60
2023-02-15T03:52:45.996Z,94.70
2023-02-15T03:53:22.150Z,94.70
2023-02-15T03:53:56.789Z,94.70
2023-02-15T03:54:44.740Z,95.50
2023-02-15T03:55:16.771Z,95.60
2023-02-15T03:55:49.996Z,94.80
2023-02-15T03:56:22.322Z,94.80
2023-02-15T03:57:15.608Z,94.80
2023-02-15T03:58:06.362Z,95.60
2023-02-15T03:58:57.137Z,95.70
2023-02-15T03:59:47.729Z,94.70
2023-02-15T04:00:42.080Z,95.30
2023-02-15T04:01:56.368Z,95.60
2023-02-15T04:02:39.370Z,94.80
2023-02-15T04:03:32.275Z,95.70
2023-02-15T04:04:20.505Z,94.80
2023-02-15T04:04:52.310Z,94.80
2023-02-15T04:05:24.119Z,95.40
2023-02-15T04:05:56.163Z,95.60
2023-02-15T04:06:27.969Z,95.30
2023-02-15T04:07:00.735Z,94.70
2023-02-15T04:07:32.585Z,94.70
2023-02-15T04:08:04.871Z,95.30
2023-02-15T04:08:55.229Z,94.80
2023-02-15T04:09:45.702Z,94.80
2023-02-15T04:10:36.129Z,94.80
2023-02-15T04:11:07.859Z,94.80
2023-02-15T04:11:39.629Z,95.40
2023-02-15T04:12:11.550Z,94.80
2023-02-15T04:12:43.351Z,95.50
2023-02-15T04:13:15.293Z,95.80
2023-02-15T04:13:47.294Z,95.10
2023-02-15T04:14:37.975Z,94.80
2023-02-15T04:15:31.557Z,95.80
2023-02-15T04:16:07.615Z,94.80
2023-02-15T04:16:41.553Z,94.90
2023-02-15T04:17:13.401Z,94.90
2023-02-15T04:17:45.177Z,95.30
2023-02-15T04:18:16.947Z,94.90
2023-02-15T04:19:07.471Z,94.90
2023-02-15T04:19:58.028Z,95.70
2023-02-15T04:20:48.568Z,94.90
2023-02-15T04:21:40.239Z,94.90
2023-02-15T04:22:30.683Z,95.60
2023-02-15T04:23:24.714Z,94.90
2023-02-15T04:24:15.352Z,94.90
2023-02-15T04:25:05.725Z,94.90
2023-02-15T04:25:37.788Z,94.90
2023-02-15T04:26:09.548Z,94.90
2023-02-15T04:26:41.357Z,95.30
2023-02-15T04:27:13.214Z,94.90
2023-02-15T04:27:54.662Z,94.90
2023-02-15T04:28:26.575Z,94.90
2023-02-15T04:28:58.349Z,95.80
2023-02-15T04:29:30.417Z,94.90
2023-02-15T04:30:02.482Z,94.90
2023-02-15T04:30:34.383Z,94.90
2023-02-15T04:31:06.436Z,94.90
2023-02-15T04:31:38.354Z,95.80
2023-02-15T04:32:10.257Z,95.60
2023-02-15T04:32:42.726Z,94.90
2023-02-15T04:33:14.541Z,94.90
2023-02-15T04:33:46.360Z,94.90
2023-02-15T04:34:18.357Z,95.80
2023-02-15T04:34:50.135Z,95.80
2023-02-15T04:35:21.955Z,94.80
2023-02-15T04:35:53.735Z,95.70
2023-02-15T04:36:25.526Z,94.90
2023-02-15T04:36:57.368Z,94.80
2023-02-15T04:37:29.306Z,94.90
2023-02-15T04:38:01.292Z,95.30
2023-02-15T04:38:33.089Z,95.70
2023-02-15T04:39:05.533Z,94.90
2023-02-15T04:39:37.624Z,95.60
2023-02-15T04:40:12.003Z,94.90
2023-02-15T04:40:44.020Z,94.80
2023-02-15T04:41:15.807Z,95.80
2023-02-15T04:41:48.739Z,95.60
2023-02-15T04:42:20.737Z,94.80
2023-02-15T04:42:52.764Z,95.70
2023-02-15T04:43:24.554Z,94.90
2023-02-15T04:43:57.370Z,94.90
2023-02-15T04:44:29.193Z,94.80
2023-02-15T04:45:01.072Z,94.90
2023-02-15T04:45:32.921Z,94.80
2023-02-15T04:46:05.438Z,94.80
2023-02-15T04:46:37.512Z,94.90
2023-02-15T04:47:09.876Z,95.40
2023-02-15T04:47:42.437Z,94.90
2023-02-15T04:48:14.154Z,94.90
2023-02-15T04:48:45.940Z,94.90
2023-02-15T04:49:17.847Z,95.70
2023-02-15T04:49:49.877Z,94.90
2023-02-15T04:50:21.732Z,94.90
2023-02-15T04:50:53.481Z,95.70
2023-02-15T04:51:25.595Z,94.90
2023-02-15T04:51:57.348Z,95.70
2023-02-15T04:52:29.218Z,95.60
2023-02-15T04:53:01.020Z,94.90
2023-02-15T04:53:32.822Z,94.90
2023-02-15T04:54:04.833Z,95.50
2023-02-15T04:54:36.681Z,94.90
2023-02-15T04:55:08.555Z,94.90
2023-02-15T04:55:40.366Z,95.70
2023-02-15T04:56:12.346Z,95.70
2023-02-15T04:56:44.495Z,94.80
2023-02-15T04:57:16.489Z,94.80
2023-02-15T04:57:48.338Z,95.40
2023-02-15T04:58:20.071Z,94.80
2023-02-15T04:58:51.886Z,95.30
2023-02-15T04:59:23.645Z,94.80
2023-02-15T04:59:55.454Z,94.90
2023-02-15T05:00:28.325Z,95.50
2023-02-15T05:01:00.315Z,94.90
2023-02-15T05:01:32.264Z,94.90
2023-02-15T05:02:04.429Z,96.10
2023-02-15T05:02:36.203Z,95.40
2023-02-15T05:03:08.022Z,94.90
2023-02-15T05:03:39.888Z,94.90
2023-02-15T05:04:11.878Z,95.50
2023-02-15T05:04:43.667Z,94.90
2023-02-15T05:05:16.099Z,94.90
2023-02-15T05:05:47.908Z,94.90
2023-02-15T05:06:19.688Z,95.70
2023-02-15T05:06:51.424Z,94.90
2023-02-15T05:07:23.282Z,94.90
2023-02-15T05:07:55.145Z,95.50
2023-02-15T05:08:26.968Z,94.90
2023-02-15T05:09:00.164Z,95.50
2023-02-15T05:09:31.938Z,94.90
2023-02-15T05:10:03.940Z,94.90
2023-02-15T05:10:36.083Z,94.90
2023-02-15T05:11:07.881Z,94.90
2023-02-15T05:11:39.690Z,94.90
2023-02-15T05:12:11.402Z,94.90
2023-02-15T05:12:43.208Z,94.70
2023-02-15T05:13:15.067Z,94.90
2023-02-15T05:13:47.538Z,94.90
2023-02-15T05:14:19.435Z,95.30
2023-02-15T05:14:51.202Z,94.40
2023-02-15T05:15:23.057Z,95.60
2023-02-15T05:15:55.532Z,95.70
2023-02-15T05:16:28.856Z,95.80
2023-02-15T05:17:02.429Z,94.90
2023-02-15T05:17:34.673Z,94.90
2023-02-15T05:18:08.087Z,95.80
2023-02-15T05:18:40.022Z,95.50
2023-02-15T05:19:11.856Z,94.90
2023-02-15T05:19:43.615Z,94.90
2023-02-15T05:20:15.468Z,94.90
2023-02-15T05:20:47.724Z,95.20
2023-02-15T05:21:19.654Z,94.90
2023-02-15T05:21:51.485Z,95.50
2023-02-15T05:22:23.304Z,94.90
2023-02-15T05:22:55.594Z,95.00
2023-02-15T05:23:27.605Z,94.90
2023-02-15T05:23:59.486Z,94.90
2023-02-15T05:24:49.787Z,95.70
2023-02-15T05:25:40.422Z,94.90
2023-02-15T05:26:38.861Z,94.90
2023-02-15T05:27:37.185Z,95.10
2023-02-15T05:28:21.788Z,95.70
2023-02-15T05:28:53.629Z,94.90
2023-02-15T05:29:25.408Z,95.60
2023-02-15T05:29:57.393Z,94.90
2023-02-15T05:30:29.512Z,95.00
2023-02-15T05:31:14.817Z,95.00
2023-02-15T05:31:48.235Z,95.00
2023-02-15T05:32:20.334Z,95.00
2023-02-15T05:32:52.246Z,95.00
2023-02-15T05:33:24.035Z,95.50
2023-02-15T05:33:55.846Z,95.00
2023-02-15T05:34:27.762Z,95.60
2023-02-15T05:34:59.524Z,95.00
2023-02-15T05:35:31.354Z,95.00
2023-02-15T05:36:04.580Z,95.00
2023-02-15T05:36:36.578Z,95.10
2023-02-15T05:37:08.754Z,95.00
2023-02-15T05:37:40.543Z,95.00
2023-02-15T05:38:12.377Z,95.00
2023-02-15T05:38:44.135Z,95.80
2023-02-15T05:39:15.919Z,95.00
2023-02-15T05:39:47.800Z,95.80
2023-02-15T05:40:19.781Z,95.00
2023-02-15T05:40:52.542Z,95.00
2023-02-15T05:41:25.109Z,95.00
2023-02-15T05:42:00.655Z,95.00
2023-02-15T05:42:32.443Z,95.00
2023-02-15T05:43:04.253Z,96.00
2023-02-15T05:43:36.349Z,95.90
2023-02-15T05:44:08.127Z,95.10
2023-02-15T05:44:39.898Z,95.10
2023-02-15T05:45:11.751Z,95.00
2023-02-15T05:45:51.755Z,95.00
2023-02-15T05:46:23.562Z,95.00
2023-02-15T05:46:55.429Z,95.90
2023-02-15T05:47:27.302Z,95.00
2023-02-15T05:47:59.308Z,95.00
2023-02-15T05:48:32.416Z,95.00
2023-02-15T05:49:04.264Z,95.00
2023-02-15T05:49:36.246Z,95.00
2023-02-15T05:50:09.008Z,95.10
2023-02-15T05:50:40.806Z,95.30
2023-02-15T05:51:15.024Z,95.00
2023-02-15T05:51:46.836Z,95.00
2023-02-15T05:52:19.141Z,95.80
2023-02-15T05:52:52.522Z,95.00
2023-02-15T05:53:24.383Z,95.90
2023-02-15T05:53:56.144Z,95.00
2023-02-15T05:54:28.538Z,95.00
2023-02-15T05:55:01.204Z,95.00
2023-02-15T05:55:33.008Z,95.10
2023-02-15T05:56:06.383Z,96.00
2023-02-15T05:56:38.183Z,95.90
2023-02-15T05:57:10.267Z,95.10
2023-02-15T05:57:42.062Z,95.10
2023-02-15T05:58:13.866Z,95.00
2023-02-15T05:58:45.716Z,95.80
2023-02-15T05:59:17.576Z,95.10
2023-02-15T05:59:49.314Z,95.10
2023-02-15T06:00:21.350Z,95.90
2023-02-15T06:00:53.163Z,95.10
2023-02-15T06:01:24.990Z,95.10
2023-02-15T06:01:56.757Z,95.30
2023-02-15T06:02:28.670Z,95.10
2023-02-15T06:03:00.511Z,95.10
2023-02-15T06:03:32.337Z,95.60
2023-02-15T06:04:04.209Z,95.40
2023-02-15T06:04:36.002Z,95.10
2023-02-15T06:05:09.104Z,95.00
2023-02-15T06:05:40.940Z,95.10
2023-02-15T06:06:12.756Z,95.10
2023-02-15T06:06:44.666Z,95.10
2023-02-15T06:07:16.424Z,96.00
2023-02-15T06:07:48.292Z,95.10
2023-02-15T06:08:20.054Z,95.80
2023-02-15T06:08:51.910Z,95.10
2023-02-15T06:09:23.704Z,95.90
2023-02-15T06:09:55.589Z,96.00
2023-02-15T06:10:27.437Z,95.10
2023-02-15T06:10:59.277Z,95.10
2023-02-15T06:11:31.397Z,95.10
2023-02-15T06:12:03.245Z,96.10
2023-02-15T06:12:35.000Z,95.20
2023-02-15T06:13:07.267Z,95.20
2023-02-15T06:13:39.299Z,95.20
2023-02-15T06:14:11.191Z,95.20
2023-02-15T06:14:43.223Z,95.20
2023-02-15T06:15:15.180Z,95.20
2023-02-15T06:15:47.112Z,95.20
2023-02-15T06:16:18.973Z,95.70
2023-02-15T06:16:50.888Z,96.00
2023-02-15T06:17:22.889Z,95.20
2023-02-15T06:17:54.728Z,95.20
2023-02-15T06:18:26.706Z,95.30
2023-02-15T06:19:00.016Z,95.10
2023-02-15T06:19:31.756Z,95.20
2023-02-15T06:20:04.573Z,95.90
2023-02-15T06:20:36.345Z,95.20
2023-02-15T06:21:08.136Z,95.20
2023-02-15T06:21:40.019Z,95.20
2023-02-15T06:22:12.022Z,95.20
2023-02-15T06:22:43.807Z,95.20
2023-02-15T06:23:16.080Z,95.20
2023-02-15T06:23:47.852Z,95.20
2023-02-15T06:24:19.664Z,95.20
2023-02-15T06:24:51.443Z,95.10
2023-02-15T06:25:23.539Z,95.20
2023-02-15T06:25:55.439Z,95.20
2023-02-15T06:26:27.287Z,95.20
2023-02-15T06:26:59.124Z,95.20
2023-02-15T06:27:30.873Z,95.20
2023-02-15T06:28:02.646Z,95.20
2023-02-15T06:28:34.508Z,96.10
2023-02-15T06:29:06.526Z,95.20
2023-02-15T06:29:38.358Z,95.20
2023-02-15T06:30:11.020Z,95.30
2023-02-15T06:30:42.906Z,95.20
2023-02-15T06:31:14.966Z,95.20
2023-02-15T06:31:46.864Z,95.30
2023-02-15T06:32:18.983Z,95.20
2023-02-15T06:32:50.882Z,95.60
2023-02-15T06:33:23.189Z,95.30
2023-02-15T06:34:01.803Z,95.20
2023-02-15T06:34:33.753Z,95.20
2023-02-15T06:35:05.797Z,95.20
2023-02-15T06:35:37.614Z,95.20
2023-02-15T06:36:09.706Z,95.20
2023-02-15T06:36:41.483Z,95.20
2023-02-15T06:37:13.319Z,95.20
2023-02-15T06:37:47.538Z,95.30
2023-02-15T06:38:19.767Z,95.30
2023-02-15T06:38:51.596Z,95.30
2023-02-15T06:39:23.439Z,95.90
2023-02-15T06:39:55.284Z,96.10
2023-02-15T06:40:27.130Z,95.30
2023-02-15T06:40:58.895Z,95.30
2023-02-15T06:41:31.043Z,96.10
2023-02-15T06:42:02.882Z,95.30
2023-02-15T06:42:34.635Z,95.30
2023-02-15T06:43:06.362Z,95.30
2023-02-15T06:43:40.039Z,95.30
2023-02-15T06:44:12.619Z,95.30
2023-02-15T06:44:44.739Z,95.30
2023-02-15T06:45:16.671Z,95.30
2023-02-15T06:45:48.488Z,95.20
2023-02-15T06:46:20.450Z,95.70
2023-02-15T06:46:52.517Z,95.30
2023-02-15T06:47:24.279Z,95.30
2023-02-15T06:47:56.028Z,95.30
2023-02-15T06:48:28.097Z,95.80
2023-02-15T06:48:59.908Z,95.30
2023-02-15T06:49:31.696Z,95.30
2023-02-15T06:50:05.262Z,95.30
2023-02-15T06:50:37.042Z,95.30
2023-02-15T06:51:09.064Z,95.30
2023-02-15T06:51:41.063Z,96.20
2023-02-15T06:52:14.322Z,95.30
2023-02-15T06:52:46.149Z,95.60
2023-02-15T06:53:17.976Z,95.30
2023-02-15T06:53:49.949Z,95.30
2023-02-15T06:54:21.804Z,95.30
2023-02-15T06:54:53.589Z,95.40
2023-02-15T06:55:26.256Z,95.40
2023-02-15T06:56:07.514Z,95.30
2023-02-15T06:56:39.674Z,95.40
2023-02-15T06:57:11.474Z,96.30
2023-02-15T06:57:43.269Z,95.40
2023-02-15T06:58:15.100Z,95.30
2023-02-15T06:58:46.975Z,95.30
2023-02-15T06:59:18.789Z,95.30
2023-02-15T06:59:50.721Z,95.30
2023-02-15T07:00:23.995Z,95.30
2023-02-15T07:00:55.800Z,95.40
2023-02-15T07:01:27.833Z,96.00
2023-02-15T07:01:59.656Z,96.10
2023-02-15T07:02:32.247Z,95.40
2023-02-15T07:03:04.133Z,96.30
2023-02-15T07:03:36.690Z,95.00
2023-02-15T07:04:08.576Z,95.40
2023-02-15T07:04:40.454Z,95.40
2023-02-15T07:05:12.664Z,95.70
2023-02-15T07:05:44.564Z,96.00
2023-02-15T07:06:16.413Z,95.40
2023-02-15T07:06:48.272Z,95.40
2023-02-15T07:07:20.012Z,95.40
2023-02-15T07:07:52.071Z,95.70
2023-02-15T07:08:24.561Z,95.40
2023-02-15T07:08:56.312Z,95.40
2023-02-15T07:09:28.189Z,96.30
2023-02-15T07:09:59.923Z,95.40
2023-02-15T07:10:31.827Z,95.40
2023-02-15T07:11:22.435Z,95.50
2023-02-15T07:12:13.254Z,95.40
2023-02-15T07:12:48.116Z,95.50
2023-02-15T07:13:20.561Z,95.50
2023-02-15T07:13:55.669Z,95.50
2023-02-15T07:14:28.995Z,95.50
2023-02-15T07:15:01.127Z,95.60
2023-02-15T07:15:32.920Z,95.40
2023-02-15T07:16:05.185Z,96.00
2023-02-15T07:16:37.281Z,95.50
2023-02-15T07:17:18.324Z,95.50
2023-02-15T07:18:00.914Z,95.50
2023-02-15T07:18:32.659Z,96.10
2023-02-15T07:19:04.488Z,95.50
2023-02-15T07:19:36.254Z,96.10
2023-02-15T07:20:15.247Z,95.50
2023-02-15T07:20:48.104Z,95.50
2023-02-15T07:21:19.911Z,95.50
2023-02-15T07:21:51.680Z,95.60
2023-02-15T07:22:23.512Z,95.60
2023-02-15T07:22:55.349Z,95.50
2023-02-15T07:23:27.181Z,95.60
2023-02-15T07:23:59.468Z,96.40
2023-02-15T07:24:31.398Z,96.40
2023-02-15T07:25:04.965Z,96.20
2023-02-15T07:25:36.858Z,96.30
2023-02-15T07:26:09.087Z,95.50
2023-02-15T07:26:40.918Z,95.60
2023-02-15T07:27:13.645Z,96.40
2023-02-15T07:27:45.960Z,95.60
2023-02-15T07:28:17.921Z,95.60
2023-02-15T07:28:50.001Z,95.60
2023-02-15T07:29:21.877Z,95.60
2023-02-15T07:29:53.741Z,95.60
2023-02-15T07:30:26.233Z,96.00
2023-02-15T07:30:58.468Z,95.60
2023-02-15T07:31:30.720Z,95.60
2023-02-15T07:32:02.600Z,95.60
2023-02-15T07:32:34.592Z,95.60
2023-02-15T07:33:24.702Z,96.00
2023-02-15T07:33:56.515Z,95.60
2023-02-15T07:34:28.335Z,96.50
2023-02-15T07:35:00.973Z,95.60
2023-02-15T07:35:33.849Z,95.60
2023-02-15T07:36:06.085Z,95.60
2023-02-15T07:36:38.002Z,95.60
2023-02-15T07:37:09.816Z,95.60
2023-02-15T07:37:41.555Z,95.60
2023-02-15T07:38:13.303Z,95.60
2023-02-15T07:38:45.741Z,95.60
2023-02-15T07:39:17.842Z,96.40
2023-02-15T07:39:49.756Z,95.60